createdAt,value
2018-05-25T00:00:18.403Z,100332
2018-05-25T00:01:23.462Z,100332
2018-05-25T00:02:28.616Z,100334
2018-05-25T00:03:34.379Z,100348
2018-05-25T00:04:39.535Z,100326
2018-05-25T00:05:44.139Z,100323
2018-05-25T00:06:49.663Z,100332
2018-05-25T00:07:54.544Z,100336
2018-05-25T00:08:59.991Z,100334
2018-05-25T00:10:05.405Z,100332
2018-05-25T00:11:10.010Z,100339
2018-05-25T00:12:15.480Z,100336
2018-05-25T00:13:21.273Z,100336
2018-05-25T00:14:26.472Z,100339
2018-05-25T00:15:32.283Z,100334
2018-05-25T00:16:37.725Z,100332
2018-05-25T00:17:42.321Z,100332
2018-05-25T00:18:47.477Z,100332
2018-05-25T00:19:52.646Z,100336
2018-05-25T00:20:58.104Z,100326
2018-05-25T00:22:02.757Z,100336
2018-05-25T00:23:07.385Z,100332
2018-05-25T00:24:12.523Z,100326
2018-05-25T00:25:18.329Z,100314
2018-05-25T00:26:23.487Z,100336
2018-05-25T00:27:29.241Z,100317
2018-05-25T00:28:34.694Z,100323
2018-05-25T00:29:39.862Z,100314
2018-05-25T00:30:45.472Z,100326
2018-05-25T00:31:50.916Z,100323
2018-05-25T00:32:56.363Z,100323
2018-05-25T00:34:01.577Z,100323
2018-05-25T00:35:06.179Z,100336
2018-05-25T00:36:11.346Z,100332
2018-05-25T00:37:17.154Z,100323
2018-05-25T00:38:22.339Z,100332
2018-05-25T00:39:28.131Z,100323
2018-05-25T00:40:33.015Z,100323
2018-05-25T00:41:38.184Z,100317
2018-05-25T00:42:43.877Z,100311
2018-05-25T00:43:49.026Z,100311
2018-05-25T00:44:53.627Z,100311
2018-05-25T00:45:59.154Z,100299
2018-05-25T00:47:03.176Z,100320
2018-05-25T00:48:08.345Z,100317
2018-05-25T00:49:13.912Z,100326
2018-05-25T00:50:18.797Z,100317
2018-05-25T00:51:24.058Z,100311
2018-05-25T00:52:44.271Z,100317
2018-05-25T00:53:49.438Z,100320
2018-05-25T00:54:54.845Z,100311
2018-05-25T00:55:59.725Z,100326
2018-05-25T00:57:04.911Z,100314
2018-05-25T00:58:10.372Z,100305
2018-05-25T00:59:15.529Z,100308
2018-05-25T01:00:20.966Z,100311
2018-05-25T01:01:26.560Z,100311
2018-05-25T01:02:31.449Z,100317
2018-05-25T01:03:37.393Z,100311
2018-05-25T01:04:42.838Z,100297
2018-05-25T01:05:48.281Z,100308
2018-05-25T01:06:53.983Z,100305
2018-05-25T01:07:59.431Z,100297
2018-05-25T01:09:04.883Z,100311
2018-05-25T01:10:10.089Z,100311
2018-05-25T01:11:15.530Z,100308
2018-05-25T01:12:20.693Z,100311
2018-05-25T01:13:40.736Z,100314
2018-05-25T01:14:45.626Z,100308
2018-05-25T01:15:51.517Z,100311
2018-05-25T01:16:56.675Z,100311
2018-05-25T01:18:01.827Z,100302
2018-05-25T01:19:06.401Z,100311
2018-05-25T01:20:11.575Z,100317
2018-05-25T01:21:17.017Z,100308
2018-05-25T01:22:22.531Z,100308
2018-05-25T01:23:27.975Z,100305
2018-05-25T01:24:33.405Z,100302
2018-05-25T01:25:38.315Z,100305
2018-05-25T01:26:43.471Z,100302
2018-05-25T01:27:48.702Z,100308
2018-05-25T01:28:53.874Z,100311
2018-05-25T01:29:58.761Z,100311
2018-05-25T01:31:04.184Z,100314
2018-05-25T01:32:09.644Z,100305
2018-05-25T01:33:14.800Z,100305
2018-05-25T01:34:19.924Z,100308
2018-05-25T01:35:24.804Z,100299
2018-05-25T01:36:30.755Z,100297
2018-05-25T01:37:35.937Z,100297
2018-05-25T01:38:41.112Z,100299
2018-05-25T01:39:46.797Z,100305
2018-05-25T01:40:51.666Z,100299
2018-05-25T01:41:57.119Z,100299
2018-05-25T01:43:02.351Z,100299
2018-05-25T01:44:07.790Z,100302
2018-05-25T01:45:13.236Z,100305
2018-05-25T01:46:18.652Z,100297
2018-05-25T01:47:23.821Z,100305
2018-05-25T01:48:29.429Z,100302
2018-05-25T01:49:34.588Z,100297
2018-05-25T01:50:40.055Z,100294
2018-05-25T01:51:45.781Z,100297
2018-05-25T01:52:50.930Z,100305
2018-05-25T01:53:55.820Z,100299
2018-05-25T01:55:01.424Z,100302
2018-05-25T01:56:06.017Z,100297
2018-05-25T01:57:11.504Z,100297
2018-05-25T01:58:17.073Z,100299
2018-05-25T01:59:21.952Z,100299
2018-05-25T02:00:27.947Z,100302
2018-05-25T02:01:33.399Z,100291
2018-05-25T02:02:38.574Z,100297
2018-05-25T02:03:44.515Z,100305
2018-05-25T02:04:49.390Z,100305
2018-05-25T02:05:54.844Z,100294
2018-05-25T02:07:00.271Z,100299
2018-05-25T02:08:05.731Z,100299
2018-05-25T02:09:10.896Z,100297
2018-05-25T02:10:16.314Z,100299
2018-05-25T02:11:20.901Z,100297
2018-05-25T02:12:26.694Z,100294
2018-05-25T02:13:32.148Z,100299
2018-05-25T02:14:37.033Z,100297
2018-05-25T02:15:42.279Z,100294
2018-05-25T02:16:47.442Z,100286
2018-05-25T02:17:53.118Z,100294
2018-05-25T02:18:58.701Z,100294
2018-05-25T02:20:03.981Z,100291
2018-05-25T02:21:09.129Z,100299
2018-05-25T02:22:14.971Z,100294
2018-05-25T02:23:20.139Z,100291
2018-05-25T02:24:40.487Z,100294
2018-05-25T02:25:45.926Z,100291
2018-05-25T02:26:51.110Z,100294
2018-05-25T02:27:57.007Z,100283
2018-05-25T02:29:02.169Z,100288
2018-05-25T02:30:06.485Z,100283
2018-05-25T02:31:11.942Z,100283
2018-05-25T02:32:17.110Z,100271
2018-05-25T02:33:21.984Z,100277
2018-05-25T02:34:27.440Z,100271
2018-05-25T02:35:32.601Z,100280
2018-05-25T02:36:37.899Z,100277
2018-05-25T02:37:42.783Z,100277
2018-05-25T02:38:48.225Z,100271
2018-05-25T02:39:53.736Z,100288
2018-05-25T02:40:58.622Z,100274
2018-05-25T02:42:03.224Z,100274
2018-05-25T02:43:08.631Z,100274
2018-05-25T02:44:13.238Z,100286
2018-05-25T02:45:18.688Z,100277
2018-05-25T02:46:24.431Z,100280
2018-05-25T02:47:29.592Z,100280
2018-05-25T02:48:34.592Z,100280
2018-05-25T02:49:39.471Z,100277
2018-05-25T02:50:44.915Z,100272
2018-05-25T02:51:50.330Z,100274
2018-05-25T02:52:55.777Z,100277
2018-05-25T02:54:00.640Z,100274
2018-05-25T02:55:06.081Z,100277
2018-05-25T02:56:11.253Z,100272
2018-05-25T02:57:16.460Z,100266
2018-05-25T02:58:22.135Z,100286
2018-05-25T02:59:27.019Z,100280
2018-05-25T03:00:32.451Z,100280
2018-05-25T03:01:37.612Z,100274
2018-05-25T03:02:43.081Z,100286
2018-05-25T03:03:48.494Z,100294
2018-05-25T03:04:53.664Z,100277
2018-05-25T03:05:58.919Z,100280
2018-05-25T03:07:04.040Z,100277
2018-05-25T03:08:08.921Z,100280
2018-05-25T03:09:13.816Z,100286
2018-05-25T03:10:19.511Z,100274
2018-05-25T03:11:24.389Z,100286
2018-05-25T03:12:29.868Z,100280
2018-05-25T03:13:35.317Z,100280
2018-05-25T03:14:40.768Z,100274
2018-05-25T03:15:46.335Z,100280
2018-05-25T03:16:51.850Z,100277
2018-05-25T03:17:56.745Z,100272
2018-05-25T03:19:02.641Z,100280
2018-05-25T03:20:06.985Z,100280
2018-05-25T03:21:11.890Z,100283
2018-05-25T03:22:17.594Z,100286
2018-05-25T03:23:22.453Z,100286
2018-05-25T03:24:27.681Z,100280
2018-05-25T03:25:33.127Z,100280
2018-05-25T03:26:37.999Z,100271
2018-05-25T03:27:43.693Z,100288
2018-05-25T03:28:48.275Z,100277
2018-05-25T03:29:53.444Z,100274
2018-05-25T03:30:58.961Z,100274
2018-05-25T03:32:04.145Z,100274
2018-05-25T03:33:09.589Z,100277
2018-05-25T03:34:15.150Z,100277
2018-05-25T03:35:20.312Z,100283
2018-05-25T03:36:40.688Z,100274
2018-05-25T03:37:45.861Z,100283
2018-05-25T03:38:51.027Z,100277
2018-05-25T03:39:56.719Z,100274
2018-05-25T03:41:01.601Z,100263
2018-05-25T03:42:05.921Z,100269
2018-05-25T03:43:10.320Z,100260
2018-05-25T03:44:15.758Z,100260
2018-05-25T03:45:20.623Z,100274
2018-05-25T03:46:40.778Z,100277
2018-05-25T03:47:45.938Z,100280
2018-05-25T03:48:51.344Z,100272
2018-05-25T03:49:56.798Z,100266
2018-05-25T03:51:01.676Z,100277
2018-05-25T03:52:06.410Z,100277
2018-05-25T03:53:11.853Z,100271
2018-05-25T03:54:17.001Z,100274
2018-05-25T03:55:22.122Z,100280
2018-05-25T03:56:27.023Z,100274
2018-05-25T03:57:32.304Z,100274
2018-05-25T03:58:37.465Z,100280
2018-05-25T03:59:42.630Z,100274
2018-05-25T04:00:48.038Z,100274
2018-05-25T04:01:53.193Z,100280
2018-05-25T04:02:58.636Z,100288
2018-05-25T04:04:04.063Z,100286
2018-05-25T04:05:08.991Z,100294
2018-05-25T04:06:14.429Z,100291
2018-05-25T04:07:20.123Z,100286
2018-05-25T04:08:25.579Z,100294
2018-05-25T04:09:30.998Z,100294
2018-05-25T04:10:36.170Z,100291
2018-05-25T04:11:41.620Z,100288
2018-05-25T04:12:47.138Z,100291
2018-05-25T04:13:52.577Z,100288
2018-05-25T04:14:57.737Z,100280
2018-05-25T04:16:03.153Z,100283
2018-05-25T04:17:07.800Z,100280
2018-05-25T04:18:12.959Z,100283
2018-05-25T04:19:18.374Z,100294
2018-05-25T04:20:23.822Z,100286
2018-05-25T04:21:29.539Z,100283
2018-05-25T04:22:34.429Z,100288
2018-05-25T04:23:39.872Z,100288
2018-05-25T04:24:45.014Z,100288
2018-05-25T04:25:50.462Z,100288
2018-05-25T04:26:55.637Z,100286
2018-05-25T04:28:01.042Z,100291
2018-05-25T04:29:05.947Z,100294
2018-05-25T04:30:10.841Z,100286
2018-05-25T04:31:15.961Z,100288
2018-05-25T04:32:21.403Z,100299
2018-05-25T04:33:26.832Z,100294
2018-05-25T04:34:31.433Z,100294
2018-05-25T04:35:36.315Z,100294
2018-05-25T04:36:41.809Z,100294
2018-05-25T04:37:46.999Z,100286
2018-05-25T04:38:52.445Z,100291
2018-05-25T04:39:57.858Z,100288
2018-05-25T04:41:02.746Z,100288
2018-05-25T04:42:07.637Z,100294
2018-05-25T04:43:13.271Z,100291
2018-05-25T04:44:18.494Z,100299
2018-05-25T04:45:23.945Z,100286
2018-05-25T04:46:44.268Z,100288
2018-05-25T04:47:49.136Z,100288
2018-05-25T04:48:54.572Z,100299
2018-05-25T04:49:59.450Z,100288
2018-05-25T04:51:04.036Z,100291
2018-05-25T04:52:09.318Z,100294
2018-05-25T04:53:14.496Z,100288
2018-05-25T04:54:19.950Z,100286
2018-05-25T04:55:25.401Z,100286
2018-05-25T04:56:30.841Z,100294
2018-05-25T04:57:35.979Z,100283
2018-05-25T04:58:41.418Z,100294
2018-05-25T04:59:46.337Z,100296
2018-05-25T05:00:51.744Z,100288
2018-05-25T05:01:57.188Z,100291
2018-05-25T05:03:02.669Z,100286
2018-05-25T05:04:08.429Z,100288
2018-05-25T05:05:13.596Z,100288
2018-05-25T05:06:19.044Z,100297
2018-05-25T05:07:24.838Z,100297
2018-05-25T05:08:30.000Z,100297
2018-05-25T05:09:35.695Z,100294
2018-05-25T05:10:41.138Z,100294
2018-05-25T05:11:46.025Z,100288
2018-05-25T05:12:51.502Z,100294
2018-05-25T05:13:56.661Z,100291
2018-05-25T05:15:01.832Z,100294
2018-05-25T05:16:06.407Z,100297
2018-05-25T05:17:11.864Z,100305
2018-05-25T05:18:16.743Z,100299
2018-05-25T05:19:22.639Z,100299
2018-05-25T05:20:27.560Z,100299
2018-05-25T05:21:33.156Z,100294
2018-05-25T05:22:38.314Z,100291
2018-05-25T05:23:43.762Z,100294
2018-05-25T05:24:49.457Z,100299
2018-05-25T05:25:54.896Z,100297
2018-05-25T05:27:00.072Z,100299
2018-05-25T05:28:05.580Z,100299
2018-05-25T05:29:10.752Z,100305
2018-05-25T05:30:15.670Z,100294
2018-05-25T05:31:20.830Z,100302
2018-05-25T05:32:26.276Z,100302
2018-05-25T05:33:32.398Z,100296
2018-05-25T05:34:37.634Z,100297
2018-05-25T05:35:42.508Z,100302
2018-05-25T05:36:48.126Z,100299
2018-05-25T05:37:53.277Z,100311
2018-05-25T05:38:58.439Z,100305
2018-05-25T05:40:03.307Z,100305
2018-05-25T05:41:08.182Z,100299
2018-05-25T05:42:13.072Z,100305
2018-05-25T05:43:18.483Z,100305
2018-05-25T05:44:23.360Z,100302
2018-05-25T05:45:28.939Z,100311
2018-05-25T05:46:33.601Z,100320
2018-05-25T05:47:38.482Z,100308
2018-05-25T05:48:44.287Z,100311
2018-05-25T05:49:49.153Z,100314
2018-05-25T05:50:54.695Z,100314
2018-05-25T05:52:00.190Z,100311
2018-05-25T05:53:05.360Z,100314
2018-05-25T05:54:10.235Z,100317
2018-05-25T05:55:15.746Z,100311
2018-05-25T05:56:21.196Z,100320
2018-05-25T05:57:26.958Z,100311
2018-05-25T05:58:31.833Z,100331
2018-05-25T05:59:36.718Z,100311
2018-05-25T06:00:42.239Z,100314
2018-05-25T06:01:47.407Z,100317
2018-05-25T06:02:52.574Z,100314
2018-05-25T06:03:58.085Z,100320
2018-05-25T06:05:02.900Z,100314
2018-05-25T06:06:08.334Z,100320
2018-05-25T06:07:13.804Z,100308
2018-05-25T06:08:18.963Z,100311
2018-05-25T06:09:23.844Z,100323
2018-05-25T06:10:28.890Z,100317
2018-05-25T06:11:33.791Z,100320
2018-05-25T06:12:39.305Z,100320
2018-05-25T06:13:44.486Z,100308
2018-05-25T06:14:49.646Z,100320
2018-05-25T06:15:55.072Z,100320
2018-05-25T06:17:00.238Z,100308
2018-05-25T06:18:05.677Z,100317
2018-05-25T06:19:11.372Z,100317
2018-05-25T06:20:16.858Z,100320
2018-05-25T06:21:22.049Z,100314
2018-05-25T06:22:28.108Z,100331
2018-05-25T06:23:33.602Z,100314
2018-05-25T06:24:39.174Z,100334
2018-05-25T06:25:44.343Z,100317
2018-05-25T06:26:49.213Z,100320
2018-05-25T06:27:54.660Z,100323
2018-05-25T06:28:59.823Z,100331
2018-05-25T06:30:04.429Z,100331
2018-05-25T06:31:09.847Z,100331
2018-05-25T06:32:15.016Z,100331
2018-05-25T06:33:20.185Z,100323
2018-05-25T06:34:25.594Z,100339
2018-05-25T06:35:30.186Z,100326
2018-05-25T06:36:35.553Z,100336
2018-05-25T06:37:40.431Z,100332
2018-05-25T06:38:45.604Z,100339
2018-05-25T06:39:50.445Z,100342
2018-05-25T06:40:55.889Z,100342
2018-05-25T06:42:00.769Z,100339
2018-05-25T06:43:05.767Z,100336
2018-05-25T06:44:10.362Z,100332
2018-05-25T06:45:15.518Z,100336
2018-05-25T06:46:20.925Z,100331
2018-05-25T06:47:26.103Z,100332
2018-05-25T06:48:31.522Z,100334
2018-05-25T06:49:36.401Z,100336
2018-05-25T06:50:41.615Z,100336
2018-05-25T06:51:47.408Z,100334
2018-05-25T06:52:52.571Z,100336
2018-05-25T06:53:58.031Z,100336
2018-05-25T06:55:02.981Z,100348
2018-05-25T06:56:07.315Z,100342
2018-05-25T06:57:12.761Z,100339
2018-05-25T06:58:18.561Z,100334
2018-05-25T06:59:23.744Z,100342
2018-05-25T07:00:28.892Z,100348
2018-05-25T07:01:33.769Z,100351
2018-05-25T07:02:38.639Z,100357
2018-05-25T07:03:44.151Z,100348
2018-05-25T07:04:49.603Z,100357
2018-05-25T07:05:54.773Z,100357
2018-05-25T07:07:00.189Z,100357
2018-05-25T07:08:05.638Z,100360
2018-05-25T07:09:10.820Z,100360
2018-05-25T07:10:16.515Z,100354
2018-05-25T07:11:21.664Z,100357
2018-05-25T07:12:27.305Z,100357
2018-05-25T07:13:32.737Z,100357
2018-05-25T07:14:37.613Z,100362
2018-05-25T07:15:43.126Z,100345
2018-05-25T07:16:48.558Z,100354
2018-05-25T07:17:53.703Z,100357
2018-05-25T07:18:59.182Z,100360
2018-05-25T07:20:03.784Z,100354
2018-05-25T07:21:09.266Z,100351
2018-05-25T07:22:14.677Z,100368
2018-05-25T07:23:20.108Z,100363
2018-05-25T07:24:24.720Z,100360
2018-05-25T07:25:30.405Z,100357
2018-05-25T07:26:35.275Z,100363
2018-05-25T07:27:40.848Z,100354
2018-05-25T07:28:46.308Z,100357
2018-05-25T07:29:51.460Z,100351
2018-05-25T07:30:56.649Z,100366
2018-05-25T07:32:01.831Z,100366
2018-05-25T07:33:06.717Z,100354
2018-05-25T07:34:12.131Z,100374
2018-05-25T07:35:16.995Z,100366
2018-05-25T07:36:22.482Z,100357
2018-05-25T07:37:28.110Z,100357
2018-05-25T07:38:33.541Z,100366
2018-05-25T07:39:38.782Z,100363
2018-05-25T07:40:43.937Z,100368
2018-05-25T07:41:49.399Z,100371
2018-05-25T07:42:54.805Z,100366
2018-05-25T07:44:00.235Z,100357
2018-05-25T07:45:05.099Z,100368
2018-05-25T07:46:10.518Z,100377
2018-05-25T07:47:15.389Z,100374
2018-05-25T07:48:20.824Z,100374
2018-05-25T07:49:25.816Z,100366
2018-05-25T07:50:30.700Z,100368
2018-05-25T07:51:36.159Z,100363
2018-05-25T07:52:41.034Z,100371
2018-05-25T07:53:46.197Z,100363
2018-05-25T07:54:51.725Z,100371
2018-05-25T07:55:56.598Z,100369
2018-05-25T07:57:02.038Z,100366
2018-05-25T07:58:06.716Z,100377
2018-05-25T07:59:12.162Z,100377
2018-05-25T08:00:17.896Z,100366
2018-05-25T08:01:23.373Z,100366
2018-05-25T08:02:28.804Z,100363
2018-05-25T08:03:34.583Z,100371
2018-05-25T08:04:40.021Z,100369
2018-05-25T08:05:45.192Z,100374
2018-05-25T08:06:51.127Z,100377
2018-05-25T08:07:56.315Z,100371
2018-05-25T08:09:01.747Z,100363
2018-05-25T08:10:06.886Z,100369
2018-05-25T08:11:11.693Z,100371
2018-05-25T08:12:17.136Z,100374
2018-05-25T08:13:22.704Z,100369
2018-05-25T08:14:28.459Z,100363
2018-05-25T08:15:34.051Z,100366
2018-05-25T08:16:39.498Z,100374
2018-05-25T08:17:44.929Z,100369
2018-05-25T08:18:50.621Z,100377
2018-05-25T08:19:56.100Z,100372
2018-05-25T08:21:01.518Z,100369
2018-05-25T08:22:06.617Z,100377
2018-05-25T08:23:11.906Z,100369
2018-05-25T08:24:17.341Z,100372
2018-05-25T08:25:23.529Z,100374
2018-05-25T08:26:28.724Z,100377
2018-05-25T08:27:34.472Z,100372
2018-05-25T08:28:39.904Z,100374
2018-05-25T08:29:44.780Z,100380
2018-05-25T08:30:49.959Z,100366
2018-05-25T08:31:54.821Z,100374
2018-05-25T08:32:59.708Z,100363
2018-05-25T08:34:05.094Z,100374
2018-05-25T08:35:09.958Z,100374
2018-05-25T08:36:15.409Z,100377
2018-05-25T08:37:20.940Z,100377
2018-05-25T08:38:26.101Z,100372
2018-05-25T08:39:32.092Z,100374
2018-05-25T08:40:37.273Z,100357
2018-05-25T08:41:42.435Z,100369
2018-05-25T08:42:47.843Z,100363
2018-05-25T08:43:53.023Z,100369
2018-05-25T08:44:58.189Z,100374
2018-05-25T08:46:03.577Z,100372
2018-05-25T08:47:08.970Z,100374
2018-05-25T08:48:14.124Z,100380
2018-05-25T08:49:19.537Z,100375
2018-05-25T08:50:24.993Z,100377
2018-05-25T08:51:30.029Z,100377
2018-05-25T08:52:35.185Z,100372
2018-05-25T08:53:40.392Z,100375
2018-05-25T08:54:45.960Z,100369
2018-05-25T08:55:51.531Z,100375
2018-05-25T08:56:56.677Z,100375
2018-05-25T08:58:02.071Z,100374
2018-05-25T08:59:06.392Z,100374
2018-05-25T09:00:11.541Z,100374
2018-05-25T09:01:16.448Z,100369
2018-05-25T09:02:21.092Z,100374
2018-05-25T09:03:26.975Z,100374
2018-05-25T09:04:32.503Z,100374
2018-05-25T09:05:37.693Z,100372
2018-05-25T09:06:43.324Z,100377
2018-05-25T09:07:48.043Z,100374
2018-05-25T09:08:53.202Z,100372
2018-05-25T09:09:59.000Z,100369
2018-05-25T09:11:04.444Z,100375
2018-05-25T09:12:09.320Z,100375
2018-05-25T09:13:14.984Z,100372
2018-05-25T09:14:19.588Z,100369
2018-05-25T09:15:25.506Z,100380
2018-05-25T09:16:30.948Z,100380
2018-05-25T09:17:36.093Z,100380
2018-05-25T09:18:41.215Z,100380
2018-05-25T09:19:46.382Z,100383
2018-05-25T09:20:51.702Z,100380
2018-05-25T09:21:57.679Z,100380
2018-05-25T09:23:03.021Z,100392
2018-05-25T09:24:08.192Z,100389
2018-05-25T09:25:13.430Z,100389
2018-05-25T09:26:18.578Z,100380
2018-05-25T09:27:23.452Z,100383
2018-05-25T09:28:29.485Z,100383
2018-05-25T09:29:34.914Z,100392
2018-05-25T09:30:40.262Z,100392
2018-05-25T09:31:45.612Z,100386
2018-05-25T09:32:50.518Z,100398
2018-05-25T09:33:56.175Z,100395
2018-05-25T09:35:00.780Z,100392
2018-05-25T09:36:04.807Z,100392
2018-05-25T09:37:09.757Z,100395
2018-05-25T09:38:14.914Z,100398
2018-05-25T09:39:20.348Z,100401
2018-05-25T09:40:40.580Z,100403
2018-05-25T09:41:45.734Z,100401
2018-05-25T09:42:51.327Z,100401
2018-05-25T09:43:56.253Z,100398
2018-05-25T09:45:01.392Z,100395
2018-05-25T09:46:06.233Z,100395
2018-05-25T09:47:11.389Z,100398
2018-05-25T09:48:16.550Z,100403
2018-05-25T09:49:21.391Z,100398
2018-05-25T09:50:26.210Z,100403
2018-05-25T09:51:31.065Z,100406
2018-05-25T09:52:36.433Z,100406
2018-05-25T09:53:41.584Z,100401
2018-05-25T09:54:46.998Z,100401
2018-05-25T09:55:51.879Z,100403
2018-05-25T09:56:57.327Z,100403
2018-05-25T09:58:03.086Z,100409
2018-05-25T09:59:08.464Z,100403
2018-05-25T10:00:13.353Z,100409
2018-05-25T10:01:18.573Z,100406
2018-05-25T10:02:24.008Z,100398
2018-05-25T10:03:29.207Z,100403
2018-05-25T10:04:34.502Z,100398
2018-05-25T10:05:39.661Z,100403
2018-05-25T10:06:44.844Z,100403
2018-05-25T10:07:50.016Z,100401
2018-05-25T10:08:55.474Z,100389
2018-05-25T10:10:00.598Z,100386
2018-05-25T10:11:05.760Z,100398
2018-05-25T10:12:10.920Z,100401
2018-05-25T10:13:16.428Z,100392
2018-05-25T10:14:20.934Z,100398
2018-05-25T10:15:40.581Z,100377
2018-05-25T10:16:46.016Z,100386
2018-05-25T10:17:50.968Z,100395
2018-05-25T10:18:56.328Z,100395
2018-05-25T10:20:01.239Z,100392
2018-05-25T10:21:06.161Z,100392
2018-05-25T10:22:11.845Z,100386
2018-05-25T10:23:17.009Z,100395
2018-05-25T10:24:22.368Z,100403
2018-05-25T10:25:27.662Z,100395
2018-05-25T10:26:33.103Z,100392
2018-05-25T10:27:38.259Z,100386
2018-05-25T10:28:43.138Z,100386
2018-05-25T10:29:48.383Z,100389
2018-05-25T10:30:53.804Z,100392
2018-05-25T10:31:59.255Z,100395
2018-05-25T10:33:04.695Z,100395
2018-05-25T10:34:10.193Z,100383
2018-05-25T10:35:15.073Z,100386
2018-05-25T10:36:20.232Z,100392
2018-05-25T10:37:26.365Z,100398
2018-05-25T10:38:31.796Z,100389
2018-05-25T10:39:37.503Z,100398
2018-05-25T10:40:42.934Z,100389
2018-05-25T10:41:48.366Z,100401
2018-05-25T10:42:53.516Z,100401
2018-05-25T10:43:58.677Z,100395
2018-05-25T10:45:03.832Z,100401
2018-05-25T10:46:08.967Z,100401
2018-05-25T10:47:14.130Z,100403
2018-05-25T10:48:19.595Z,100395
2018-05-25T10:49:24.815Z,100392
2018-05-25T10:50:30.254Z,100401
2018-05-25T10:51:35.675Z,100392
2018-05-25T10:52:40.560Z,100395
2018-05-25T10:53:45.419Z,100377
2018-05-25T10:54:50.830Z,100386
2018-05-25T10:55:56.362Z,100377
2018-05-25T10:57:01.317Z,100380
2018-05-25T10:58:06.589Z,100380
2018-05-25T10:59:11.733Z,100380
2018-05-25T11:00:16.897Z,100372
2018-05-25T11:01:22.401Z,100377
2018-05-25T11:02:27.900Z,100380
2018-05-25T11:03:32.944Z,100383
2018-05-25T11:04:38.098Z,100374
2018-05-25T11:05:43.284Z,100377
2018-05-25T11:06:48.696Z,100377
2018-05-25T11:07:54.131Z,100389
2018-05-25T11:08:58.749Z,100377
2018-05-25T11:10:04.288Z,100374
2018-05-25T11:11:10.016Z,100374
2018-05-25T11:12:15.446Z,100369
2018-05-25T11:13:20.418Z,100363
2018-05-25T11:14:25.062Z,100369
2018-05-25T11:15:30.653Z,100377
2018-05-25T11:16:35.808Z,100374
2018-05-25T11:17:41.251Z,100372
2018-05-25T11:18:46.676Z,100360
2018-05-25T11:19:52.129Z,100363
2018-05-25T11:20:57.394Z,100360
2018-05-25T11:22:03.008Z,100357
2018-05-25T11:23:08.159Z,100357
2018-05-25T11:24:13.592Z,100354
2018-05-25T11:25:18.997Z,100348
2018-05-25T11:26:24.446Z,100343
2018-05-25T11:27:30.106Z,100351
2018-05-25T11:28:34.675Z,100345
2018-05-25T11:29:40.030Z,100340
2018-05-25T11:30:44.862Z,100342
2018-05-25T11:31:50.008Z,100345
2018-05-25T11:32:55.445Z,100342
2018-05-25T11:34:00.567Z,100337
2018-05-25T11:35:06.014Z,100345
2018-05-25T11:36:11.452Z,100351
2018-05-25T11:37:16.580Z,100351
2018-05-25T11:38:21.662Z,100351
2018-05-25T11:39:27.357Z,100348
2018-05-25T11:40:32.800Z,100351
2018-05-25T11:41:37.961Z,100351
2018-05-25T11:42:43.848Z,100345
2018-05-25T11:43:49.307Z,100351
2018-05-25T11:44:54.920Z,100340
2018-05-25T11:46:00.483Z,100343
2018-05-25T11:47:05.070Z,100345
2018-05-25T11:48:09.942Z,100351
2018-05-25T11:49:15.353Z,100337
2018-05-25T11:50:20.507Z,100335
2018-05-25T11:51:25.992Z,100343
2018-05-25T11:52:31.427Z,100351
2018-05-25T11:53:36.858Z,100340
2018-05-25T11:54:42.129Z,100340
2018-05-25T11:55:47.279Z,100340
2018-05-25T11:56:52.447Z,100343
2018-05-25T11:57:57.360Z,100343
2018-05-25T11:59:02.514Z,100340
2018-05-25T12:00:07.404Z,100340
2018-05-25T12:01:12.520Z,100340
2018-05-25T12:02:17.674Z,100340
2018-05-25T12:03:22.820Z,100357
2018-05-25T12:04:27.941Z,100351
2018-05-25T12:05:33.383Z,100357
2018-05-25T12:06:38.747Z,100345
2018-05-25T12:07:43.702Z,100345
2018-05-25T12:08:49.135Z,100351
2018-05-25T12:09:54.533Z,100345
2018-05-25T12:10:59.686Z,100351
2018-05-25T12:12:04.577Z,100345
2018-05-25T12:13:10.084Z,100351
2018-05-25T12:14:15.242Z,100348
2018-05-25T12:15:20.098Z,100351
2018-05-25T12:16:25.869Z,100345
2018-05-25T12:17:30.861Z,100351
2018-05-25T12:18:36.270Z,100345
2018-05-25T12:19:41.437Z,100345
2018-05-25T12:20:47.075Z,100342
2018-05-25T12:21:52.236Z,100345
2018-05-25T12:22:57.365Z,100348
2018-05-25T12:24:01.929Z,100345
2018-05-25T12:25:06.875Z,100348
2018-05-25T12:26:12.031Z,100337
2018-05-25T12:27:17.696Z,100342
2018-05-25T12:28:23.567Z,100337
2018-05-25T12:29:29.006Z,100342
2018-05-25T12:30:34.551Z,100351
2018-05-25T12:31:39.705Z,100348
2018-05-25T12:32:44.847Z,100345
2018-05-25T12:33:50.473Z,100351
2018-05-25T12:34:55.624Z,100345
2018-05-25T12:36:00.777Z,100332
2018-05-25T12:37:05.904Z,100345
2018-05-25T12:38:10.785Z,100342
2018-05-25T12:39:15.368Z,100332
2018-05-25T12:40:20.787Z,100340
2018-05-25T12:41:25.664Z,100340
2018-05-25T12:42:31.282Z,100342
2018-05-25T12:43:36.917Z,100345
2018-05-25T12:44:42.105Z,100342
2018-05-25T12:45:47.313Z,100326
2018-05-25T12:46:52.473Z,100340
2018-05-25T12:47:57.637Z,100342
2018-05-25T12:49:02.234Z,100337
2018-05-25T12:50:07.157Z,100337
2018-05-25T12:51:12.674Z,100335
2018-05-25T12:52:18.095Z,100332
2018-05-25T12:53:22.675Z,100340
2018-05-25T12:54:28.249Z,100337
2018-05-25T12:55:33.408Z,100340
2018-05-25T12:56:38.644Z,100342
2018-05-25T12:57:44.390Z,100340
2018-05-25T12:58:49.836Z,100342
2018-05-25T12:59:55.295Z,100340
2018-05-25T13:01:00.709Z,100340
2018-05-25T13:02:05.025Z,100340
2018-05-25T13:03:10.695Z,100348
2018-05-25T13:04:16.201Z,100354
2018-05-25T13:05:21.363Z,100342
2018-05-25T13:06:26.984Z,100342
2018-05-25T13:07:32.418Z,100348
2018-05-25T13:08:37.580Z,100345
2018-05-25T13:09:42.998Z,100340
2018-05-25T13:10:47.795Z,100340
2018-05-25T13:11:52.652Z,100348
2018-05-25T13:12:58.335Z,100348
2018-05-25T13:14:03.481Z,100357
2018-05-25T13:15:08.345Z,100345
2018-05-25T13:16:13.914Z,100343
2018-05-25T13:17:18.524Z,100351
2018-05-25T13:18:23.391Z,100348
2018-05-25T13:19:29.931Z,100343
2018-05-25T13:20:35.001Z,100343
2018-05-25T13:21:40.487Z,100343
2018-05-25T13:22:45.726Z,100340
2018-05-25T13:23:50.881Z,100351
2018-05-25T13:24:56.277Z,100340
2018-05-25T13:26:01.434Z,100335
2018-05-25T13:27:06.027Z,100348
2018-05-25T13:28:11.581Z,100345
2018-05-25T13:29:16.487Z,100345
2018-05-25T13:30:21.637Z,100351
2018-05-25T13:31:27.126Z,100345
2018-05-25T13:32:32.271Z,100348
2018-05-25T13:33:37.969Z,100343
2018-05-25T13:34:42.835Z,100354
2018-05-25T13:35:47.990Z,100348